Terminal Aerodrome Forecast
Issued by NWS

Home | Current Version | Previous Version | Text Only | Print | Product List | Glossary On
Versions: 1 2 3 4 5 6 7 8 9 10 11 12 13 14 15
000
FTAK31 PAJN 042000 AAA
TAFAYA
TAF AMD
PAYA 042048Z 0421/0518 30005KT P6SM SCT020 BKN180
      TEMPO 0421/0423 BKN018
     FM050300 VRB03KT P6SM BKN100
     FM050900 00000KT P6SM BCFG SCT005 BKN100
     FM051500 00000KT P6SM SCT060 BKN120
      AMD LTD TO CLD VIS AND WIND 0501/0510=

USA.gov is the U.S. government's official web portal to all federal, state and local government web resources and services.